sensor_id;sensor_type;location;lat;lon;timestamp;pressure;altitude;pressure_sealevel;temperature;humidity
80184;BME280;69682;52.138;5.440;2023-10-09T00:01:05;102077.19;;;13.67;90.06
80184;BME280;69682;52.138;5.440;2023-10-09T00:03:40;102089.50;;;13.69;89.79
80184;BME280;69682;52.138;5.440;2023-10-09T00:06:08;102085.00;;;13.70;90.14
80184;BME280;69682;52.138;5.440;2023-10-09T00:08:39;102081.47;;;13.69;89.99
80184;BME280;69682;52.138;5.440;2023-10-09T00:11:11;102077.81;;;13.70;89.94
80184;BME280;69682;52.138;5.440;2023-10-09T00:13:47;102074.50;;;13.67;90.13
80184;BME280;69682;52.138;5.440;2023-10-09T00:16:25;102071.81;;;13.67;89.95
80184;BME280;69682;52.138;5.440;2023-10-09T00:19:02;102061.09;;;13.67;89.70
80184;BME280;69682;52.138;5.440;2023-10-09T00:21:47;102061.00;;;13.68;89.40
80184;BME280;69682;52.138;5.440;2023-10-09T00:24:14;102059.94;;;13.71;89.69
80184;BME280;69682;52.138;5.440;2023-10-09T00:26:50;102061.53;;;13.73;89.90
80184;BME280;69682;52.138;5.440;2023-10-09T00:29:18;102066.88;;;13.73;89.92
80184;BME280;69682;52.138;5.440;2023-10-09T00:31:54;102072.91;;;13.77;89.38
80184;BME280;69682;52.138;5.440;2023-10-09T00:34:40;102068.41;;;13.77;89.36
80184;BME280;69682;52.138;5.440;2023-10-09T00:37:07;102072.03;;;13.76;89.74
80184;BME280;69682;52.138;5.440;2023-10-09T00:39:45;102072.03;;;13.76;89.44
80184;BME280;69682;52.138;5.440;2023-10-09T00:42:14;102066.56;;;13.78;89.57
80184;BME280;69682;52.138;5.440;2023-10-09T00:44:54;102071.06;;;13.77;89.59
80184;BME280;69682;52.138;5.440;2023-10-09T00:47:23;102071.81;;;13.79;89.71
80184;BME280;69682;52.138;5.440;2023-10-09T00:50:11;102070.00;;;13.80;89.58
80184;BME280;69682;52.138;5.440;2023-10-09T00:52:45;102071.63;;;13.82;89.63
80184;BME280;69682;52.138;5.440;2023-10-09T00:55:19;102065.28;;;13.83;89.74
80184;BME280;69682;52.138;5.440;2023-10-09T00:58:03;102058.94;;;13.84;89.83
80184;BME280;69682;52.138;5.440;2023-10-09T01:00:35;102048.25;;;13.84;89.81
80184;BME280;69682;52.138;5.440;2023-10-09T01:03:16;102058.22;;;13.82;89.67
80184;BME280;69682;52.138;5.440;2023-10-09T01:05:46;102047.38;;;13.84;89.99
80184;BME280;69682;52.138;5.440;2023-10-09T01:08:19;102048.47;;;13.81;89.69
80184;BME280;69682;52.138;5.440;2023-10-09T01:11:04;102037.75;;;13.81;89.90
80184;BME280;69682;52.138;5.440;2023-10-09T01:13:38;102040.53;;;13.80;89.92
80184;BME280;69682;52.138;5.440;2023-10-09T01:16:21;102040.41;;;13.81;90.08
80184;BME280;69682;52.138;5.440;2023-10-09T01:18:54;102040.19;;;13.84;90.18
80184;BME280;69682;52.138;5.440;2023-10-09T01:21:24;102038.28;;;13.86;89.99
80184;BME280;69682;52.138;5.440;2023-10-09T01:23:53;102037.31;;;13.88;90.06
80184;BME280;69682;52.138;5.440;2023-10-09T01:26:26;102039.97;;;13.88;90.03
80184;BME280;69682;52.138;5.440;2023-10-09T01:28:52;102029.16;;;13.89;89.79
80184;BME280;69682;52.138;5.440;2023-10-09T01:31:24;102031.84;;;13.89;89.98
80184;BME280;69682;52.138;5.440;2023-10-09T01:33:54;102042.34;;;13.92;89.95
80184;BME280;69682;52.138;5.440;2023-10-09T01:36:26;102034.19;;;13.94;90.03
80184;BME280;69682;52.138;5.440;2023-10-09T01:38:59;102026.06;;;13.95;89.93
80184;BME280;69682;52.138;5.440;2023-10-09T01:41:27;102034.94;;;13.96;89.61
80184;BME280;69682;52.138;5.440;2023-10-09T01:43:54;102024.00;;;13.99;89.89
80184;BME280;69682;52.138;5.440;2023-10-09T01:46:27;102021.22;;;14.00;89.69
80184;BME280;69682;52.138;5.440;2023-10-09T01:48:54;102017.56;;;14.01;89.84
80184;BME280;69682;52.138;5.440;2023-10-09T01:51:21;102016.72;;;14.01;89.95
80184;BME280;69682;52.138;5.440;2023-10-09T01:53:47;102015.00;;;14.00;89.73
80184;BME280;69682;52.138;5.440;2023-10-09T01:56:20;102023.91;;;14.00;89.90
80184;BME280;69682;52.138;5.440;2023-10-09T01:58:47;102011.25;;;14.02;89.92
80184;BME280;69682;52.138;5.440;2023-10-09T02:01:14;102006.72;;;14.03;89.69
80184;BME280;69682;52.138;5.440;2023-10-09T02:03:41;101998.81;;;14.01;89.87
80184;BME280;69682;52.138;5.440;2023-10-09T02:06:09;101990.16;;;13.98;89.96
80184;BME280;69682;52.138;5.440;2023-10-09T02:08:55;102002.69;;;13.97;89.85
80184;BME280;69682;52.138;5.440;2023-10-09T02:11:22;101997.34;;;13.97;90.05
80184;BME280;69682;52.138;5.440;2023-10-09T02:14:09;101986.63;;;13.97;89.77
80184;BME280;69682;52.138;5.440;2023-10-09T02:16:47;101991.97;;;13.97;89.58
80184;BME280;69682;52.138;5.440;2023-10-09T02:19:29;101984.78;;;13.98;89.73
80184;BME280;69682;52.138;5.440;2023-10-09T02:22:03;101988.94;;;14.02;90.09
80184;BME280;69682;52.138;5.440;2023-10-09T02:24:43;101986.28;;;14.02;89.87
80184;BME280;69682;52.138;5.440;2023-10-09T02:27:17;101972.03;;;14.01;89.92
80184;BME280;69682;52.138;5.440;2023-10-09T02:30:06;101974.69;;;14.01;90.24
80184;BME280;69682;52.138;5.440;2023-10-09T02:32:42;101971.16;;;14.01;89.85
80184;BME280;69682;52.138;5.440;2023-10-09T02:35:10;101966.66;;;14.01;89.87
80184;BME280;69682;52.138;5.440;2023-10-09T02:37:57;101970.94;;;14.04;90.16
80184;BME280;69682;52.138;5.440;2023-10-09T02:40:28;101973.50;;;14.05;89.93
80184;BME280;69682;52.138;5.440;2023-10-09T02:42:58;101973.50;;;14.05;90.10
80184;BME280;69682;52.138;5.440;2023-10-09T02:45:25;101970.81;;;14.05;89.79
80184;BME280;69682;52.138;5.440;2023-10-09T02:47:52;101963.66;;;14.06;90.06
80184;BME280;69682;52.138;5.440;2023-10-09T02:50:22;101967.19;;;14.06;90.16
80184;BME280;69682;52.138;5.440;2023-10-09T02:52:49;101960.00;;;14.07;89.83
80184;BME280;69682;52.138;5.440;2023-10-09T02:55:27;101955.50;;;14.07;89.96
80184;BME280;69682;52.138;5.440;2023-10-09T02:57:55;101952.81;;;14.07;90.16
80184;BME280;69682;52.138;5.440;2023-10-09T03:00:37;101950.97;;;14.08;90.14
80184;BME280;69682;52.138;5.440;2023-10-09T03:03:04;101947.34;;;14.09;90.14
80184;BME280;69682;52.138;5.440;2023-10-09T03:05:34;101940.16;;;14.09;90.12
80184;BME280;69682;52.138;5.440;2023-10-09T03:08:08;101942.84;;;14.09;90.04
80184;BME280;69682;52.138;5.440;2023-10-09T03:10:35;101935.66;;;14.10;90.00
80184;BME280;69682;52.138;5.440;2023-10-09T03:13:02;101940.16;;;14.09;89.95
80184;BME280;69682;52.138;5.440;2023-10-09T03:15:31;101939.09;;;14.12;90.20
80184;BME280;69682;52.138;5.440;2023-10-09T03:18:02;101934.59;;;14.13;90.21
80184;BME280;69682;52.138;5.440;2023-10-09T03:20:31;101946.91;;;14.15;90.08
80184;BME280;69682;52.138;5.440;2023-10-09T03:22:58;101935.19;;;14.16;90.09
80184;BME280;69682;52.138;5.440;2023-10-09T03:25:28;101942.41;;;14.16;89.92
80184;BME280;69682;52.138;5.440;2023-10-09T03:27:54;101936.91;;;14.17;89.95
80184;BME280;69682;52.138;5.440;2023-10-09T03:30:25;101933.38;;;14.17;89.92
80184;BME280;69682;52.138;5.440;2023-10-09T03:32:52;101939.81;;;14.14;89.88
80184;BME280;69682;52.138;5.440;2023-10-09T03:35:21;101939.94;;;14.13;90.01
80184;BME280;69682;52.138;5.440;2023-10-09T03:37:53;101929.31;;;14.11;89.98
80184;BME280;69682;52.138;5.440;2023-10-09T03:40:27;101927.50;;;14.12;90.03
80184;BME280;69682;52.138;5.440;2023-10-09T03:42:58;101927.63;;;14.10;89.93
80184;BME280;69682;52.138;5.440;2023-10-09T03:45:27;101938.34;;;14.10;90.09
80184;BME280;69682;52.138;5.440;2023-10-09T03:47:57;101955.25;;;14.11;90.17
80184;BME280;69682;52.138;5.440;2023-10-09T03:50:32;101973.94;;;14.12;90.20
80184;BME280;69682;52.138;5.440;2023-10-09T03:53:06;101984.66;;;14.12;90.35
80184;BME280;69682;52.138;5.440;2023-10-09T03:55:38;101975.41;;;14.16;90.33
80184;BME280;69682;52.138;5.440;2023-10-09T03:58:06;101973.47;;;14.18;90.37
80184;BME280;69682;52.138;5.440;2023-10-09T04:00:33;101965.22;;;14.21;90.36
80184;BME280;69682;52.138;5.440;2023-10-09T04:03:12;101968.75;;;14.22;90.41
80184;BME280;69682;52.138;5.440;2023-10-09T04:05:41;101971.19;;;14.25;90.74
80184;BME280;69682;52.138;5.440;2023-10-09T04:08:10;101967.44;;;14.27;90.65
80184;BME280;69682;52.138;5.440;2023-10-09T04:10:39;101970.88;;;14.29;90.83
80184;BME280;69682;52.138;5.440;2023-10-09T04:13:10;101963.53;;;14.31;90.74
80184;BME280;69682;52.138;5.440;2023-10-09T04:15:43;101959.69;;;14.36;90.98
80184;BME280;69682;52.138;5.440;2023-10-09T04:18:10;101971.13;;;14.38;90.84
80184;BME280;69682;52.138;5.440;2023-10-09T04:20:44;101960.19;;;14.41;91.16
80184;BME280;69682;52.138;5.440;2023-10-09T04:23:11;101966.41;;;14.41;91.12
80184;BME280;69682;52.138;5.440;2023-10-09T04:25:42;101969.09;;;14.41;90.97
80184;BME280;69682;52.138;5.440;2023-10-09T04:28:09;101955.56;;;14.43;91.35
80184;BME280;69682;52.138;5.440;2023-10-09T04:30:39;101958.00;;;14.46;91.23
80184;BME280;69682;52.138;5.440;2023-10-09T04:33:21;101944.59;;;14.46;91.35
80184;BME280;69682;52.138;5.440;2023-10-09T04:36:04;101929.28;;;14.48;91.09
80184;BME280;69682;52.138;5.440;2023-10-09T04:38:52;101928.09;;;14.52;91.14
80184;BME280;69682;52.138;5.440;2023-10-09T04:41:22;101939.56;;;14.54;91.12
80184;BME280;69682;52.138;5.440;2023-10-09T04:43:59;101935.81;;;14.57;91.16
80184;BME280;69682;52.138;5.440;2023-10-09T04:46:49;101941.88;;;14.59;91.26
80184;BME280;69682;52.138;5.440;2023-10-09T04:49:45;101939.09;;;14.60;91.10
80184;BME280;69682;52.138;5.440;2023-10-09T04:52:18;101938.13;;;14.61;91.15
80184;BME280;69682;52.138;5.440;2023-10-09T04:55:06;101936.94;;;14.65;91.27
80184;BME280;69682;52.138;5.440;2023-10-09T04:57:42;101936.69;;;14.68;91.18
80184;BME280;69682;52.138;5.440;2023-10-09T05:00:11;101936.47;;;14.71;91.21
80184;BME280;69682;52.138;5.440;2023-10-09T05:02:58;101938.91;;;14.74;91.10
80184;BME280;69682;52.138;5.440;2023-10-09T05:05:30;101944.13;;;14.76;90.94
80184;BME280;69682;52.138;5.440;2023-10-09T05:08:18;101936.75;;;14.80;91.23
80184;BME280;69682;52.138;5.440;2023-10-09T05:10:52;101944.56;;;14.83;91.02
80184;BME280;69682;52.138;5.440;2023-10-09T05:13:29;101946.13;;;14.85;91.07
80184;BME280;69682;52.138;5.440;2023-10-09T05:18:56;101952.84;;;14.91;91.19
80184;BME280;69682;52.138;5.440;2023-10-09T05:21:34;101961.63;;;14.93;91.19
80184;BME280;69682;52.138;5.440;2023-10-09T05:24:13;101963.34;;;14.94;90.97
80184;BME280;69682;52.138;5.440;2023-10-09T05:26:46;101972.13;;;14.96;91.03
80184;BME280;69682;52.138;5.440;2023-10-09T05:29:24;101975.19;;;15.03;90.65
80184;BME280;69682;52.138;5.440;2023-10-09T05:31:51;101979.38;;;15.07;90.89
80184;BME280;69682;52.138;5.440;2023-10-09T05:34:36;101991.47;;;15.12;90.71
80184;BME280;69682;52.138;5.440;2023-10-09T05:37:24;101975.59;;;15.20;90.45
80184;BME280;69682;52.138;5.440;2023-10-09T05:40:03;101986.59;;;15.29;89.91
80184;BME280;69682;52.138;5.440;2023-10-09T05:42:50;101981.13;;;15.30;89.87
80184;BME280;69682;52.138;5.440;2023-10-09T05:45:27;101991.72;;;15.32;90.28
80184;BME280;69682;52.138;5.440;2023-10-09T05:48:16;101994.94;;;15.37;90.26
80184;BME280;69682;52.138;5.440;2023-10-09T05:50:44;101999.06;;;15.41;89.88
80184;BME280;69682;52.138;5.440;2023-10-09T05:53:39;101998.47;;;15.49;90.17
80184;BME280;69682;52.138;5.440;2023-10-09T05:56:12;101997.13;;;15.54;89.70
80184;BME280;69682;52.138;5.440;2023-10-09T05:58:57;102006.06;;;15.55;89.49
80184;BME280;69682;52.138;5.440;2023-10-09T06:01:42;101998.75;;;15.57;89.77
80184;BME280;69682;52.138;5.440;2023-10-09T06:04:28;101992.13;;;15.61;89.78
80184;BME280;69682;52.138;5.440;2023-10-09T06:07:21;101951.34;;;15.67;89.56
80184;BME280;69682;52.138;5.440;2023-10-09T06:10:08;101944.38;;;15.64;89.54
80184;BME280;69682;52.138;5.440;2023-10-09T06:12:57;101938.06;;;15.65;89.25
80184;BME280;69682;52.138;5.440;2023-10-09T06:15:37;101956.50;;;15.70;89.26
80184;BME280;69682;52.138;5.440;2023-10-09T06:18:12;101953.09;;;15.68;89.21
80184;BME280;69682;52.138;5.440;2023-10-09T06:21:00;101970.81;;;15.71;89.06
80184;BME280;69682;52.138;5.440;2023-10-09T06:23:56;101969.09;;;15.70;89.38
80184;BME280;69682;52.138;5.440;2023-10-09T06:26:44;101951.28;;;15.69;89.36
80184;BME280;69682;52.138;5.440;2023-10-09T06:29:27;101955.88;;;15.66;89.69
80184;BME280;69682;52.138;5.440;2023-10-09T06:32:03;101939.75;;;15.66;89.64
80184;BME280;69682;52.138;5.440;2023-10-09T06:35:02;101956.13;;;15.63;89.92
80184;BME280;69682;52.138;5.440;2023-10-09T06:37:50;101951.84;;;15.61;89.91
80184;BME280;69682;52.138;5.440;2023-10-09T06:40:31;101958.06;;;15.61;89.99
80184;BME280;69682;52.138;5.440;2023-10-09T06:43:16;101975.91;;;15.62;90.08
80184;BME280;69682;52.138;5.440;2023-10-09T06:45:44;101990.19;;;15.63;90.25
80184;BME280;69682;52.138;5.440;2023-10-09T06:48:12;101999.34;;;15.60;90.04
80184;BME280;69682;52.138;5.440;2023-10-09T06:51:11;102000.09;;;15.62;90.28
80184;BME280;69682;52.138;5.440;2023-10-09T06:53:55;102001.94;;;15.62;90.06
80184;BME280;69682;52.138;5.440;2023-10-09T06:56:26;102003.47;;;15.64;90.22
80184;BME280;69682;52.138;5.440;2023-10-09T06:59:00;102011.53;;;15.64;90.42
80184;BME280;69682;52.138;5.440;2023-10-09T07:01:31;102000.69;;;15.66;90.20
80184;BME280;69682;52.138;5.440;2023-10-09T07:04:09;101998.78;;;15.68;90.17
80184;BME280;69682;52.138;5.440;2023-10-09T07:06:47;102001.31;;;15.70;90.27
80184;BME280;69682;52.138;5.440;2023-10-09T07:09:14;101993.16;;;15.71;90.48
80184;BME280;69682;52.138;5.440;2023-10-09T07:11:43;101997.69;;;15.71;90.13
80184;BME280;69682;52.138;5.440;2023-10-09T07:14:18;101995.72;;;15.73;90.27
80184;BME280;69682;52.138;5.440;2023-10-09T07:16:59;101993.75;;;15.75;90.23
80184;BME280;69682;52.138;5.440;2023-10-09T07:19:31;102004.38;;;15.76;90.30
80184;BME280;69682;52.138;5.440;2023-10-09T07:22:01;101992.78;;;15.76;90.07
80184;BME280;69682;52.138;5.440;2023-10-09T07:24:31;101987.28;;;15.77;90.40
80184;BME280;69682;52.138;5.440;2023-10-09T07:27:17;101980.94;;;15.78;90.17
80184;BME280;69682;52.138;5.440;2023-10-09T07:29:44;101966.50;;;15.79;90.31
80184;BME280;69682;52.138;5.440;2023-10-09T07:32:22;101952.13;;;15.80;90.17
80184;BME280;69682;52.138;5.440;2023-10-09T07:34:49;101945.75;;;15.81;90.20
80184;BME280;69682;52.138;5.440;2023-10-09T07:37:23;101927.69;;;15.83;90.07
80184;BME280;69682;52.138;5.440;2023-10-09T07:39:50;101928.53;;;15.84;90.21
80184;BME280;69682;52.138;5.440;2023-10-09T07:42:26;101922.91;;;15.87;90.52
80184;BME280;69682;52.138;5.440;2023-10-09T07:45:11;101942.47;;;15.89;90.19
80184;BME280;69682;52.138;5.440;2023-10-09T07:47:57;101959.19;;;15.93;90.21
80184;BME280;69682;52.138;5.440;2023-10-09T07:50:34;101968.69;;;15.97;90.40
80184;BME280;69682;52.138;5.440;2023-10-09T07:53:08;101981.88;;;16.00;90.32
80184;BME280;69682;52.138;5.440;2023-10-09T07:55:53;101980.78;;;16.02;90.57
80184;BME280;69682;52.138;5.440;2023-10-09T07:58:33;101988.59;;;16.05;90.60
80184;BME280;69682;52.138;5.440;2023-10-09T08:01:13;101986.53;;;16.09;90.60
80184;BME280;69682;52.138;5.440;2023-10-09T08:03:49;101988.00;;;16.13;90.83
80184;BME280;69682;52.138;5.440;2023-10-09T08:06:31;101992.25;;;16.16;90.49
80184;BME280;69682;52.138;5.440;2023-10-09T08:09:28;101992.75;;;16.21;90.35
80184;BME280;69682;52.138;5.440;2023-10-09T08:12:14;101987.13;;;16.24;90.52
80184;BME280;69682;52.138;5.440;2023-10-09T08:15:02;102011.78;;;16.29;89.99
80184;BME280;69682;52.138;5.440;2023-10-09T08:17:45;102004.44;;;16.31;90.08
80184;BME280;69682;52.138;5.440;2023-10-09T08:20:17;102015.81;;;16.34;89.69
80184;BME280;69682;52.138;5.440;2023-10-09T08:22:44;102006.63;;;16.37;89.70
80184;BME280;69682;52.138;5.440;2023-10-09T08:25:16;102008.06;;;16.41;89.72
80184;BME280;69682;52.138;5.440;2023-10-09T08:28:21;102001.47;;;16.45;89.42
80184;BME280;69682;52.138;5.440;2023-10-09T08:31:13;102004.75;;;16.49;89.50
80184;BME280;69682;52.138;5.440;2023-10-09T08:33:46;102003.66;;;16.51;89.20
80184;BME280;69682;52.138;5.440;2023-10-09T08:36:26;102018.56;;;16.55;89.25
80184;BME280;69682;52.138;5.440;2023-10-09T08:38:58;102034.19;;;16.62;88.53
80184;BME280;69682;52.138;5.440;2023-10-09T08:41:25;102057.19;;;16.66;88.51
80184;BME280;69682;52.138;5.440;2023-10-09T08:43:58;102051.28;;;16.72;88.75
80184;BME280;69682;52.138;5.440;2023-10-09T08:46:27;102051.66;;;16.78;88.50
80184;BME280;69682;52.138;5.440;2023-10-09T08:51:50;102045.25;;;16.91;87.62
80184;BME280;69682;52.138;5.440;2023-10-09T08:56:49;102056.97;;;17.01;87.50
80184;BME280;69682;52.138;5.440;2023-10-09T08:59:19;102061.00;;;17.07;86.84
80184;BME280;69682;52.138;5.440;2023-10-09T09:04:41;102049.53;;;17.14;86.71
80184;BME280;69682;52.138;5.440;2023-10-09T09:07:28;102057.38;;;17.17;86.15
80184;BME280;69682;52.138;5.440;2023-10-09T09:15:56;102057.91;;;17.32;85.85
80184;BME280;69682;52.138;5.440;2023-10-09T09:18:24;102057.53;;;17.37;86.10
80184;BME280;69682;52.138;5.440;2023-10-09T09:20:58;102072.56;;;17.39;85.34
80184;BME280;69682;52.138;5.440;2023-10-09T09:23:25;102081.13;;;17.44;85.31
80184;BME280;69682;52.138;5.440;2023-10-09T09:25:52;102077.03;;;17.50;85.34
80184;BME280;69682;52.138;5.440;2023-10-09T09:28:51;102078.22;;;17.57;84.58
80184;BME280;69682;52.138;5.440;2023-10-09T09:31:21;102076.84;;;17.63;84.42
80184;BME280;69682;52.138;5.440;2023-10-09T09:33:56;102070.75;;;17.70;84.43
80184;BME280;69682;52.138;5.440;2023-10-09T09:36:24;102072.34;;;17.73;84.01
80184;BME280;69682;52.138;5.440;2023-10-09T09:38:57;102076.50;;;17.77;84.42
80184;BME280;69682;52.138;5.440;2023-10-09T09:41:28;102076.25;;;17.80;83.57
80184;BME280;69682;52.138;5.440;2023-10-09T09:43:56;102075.97;;;17.83;83.67
80184;BME280;69682;52.138;5.440;2023-10-09T09:46:23;102067.63;;;17.86;83.68
80184;BME280;69682;52.138;5.440;2023-10-09T09:49:01;102067.22;;;17.91;83.49
80184;BME280;69682;52.138;5.440;2023-10-09T09:51:48;102069.50;;;17.96;83.54
80184;BME280;69682;52.138;5.440;2023-10-09T09:54:14;102076.31;;;18.00;83.22
80184;BME280;69682;52.138;5.440;2023-10-09T09:56:45;102079.47;;;18.05;82.96
80184;BME280;69682;52.138;5.440;2023-10-09T09:59:18;102077.50;;;18.07;83.10
80184;BME280;69682;52.138;5.440;2023-10-09T10:01:49;102082.47;;;18.11;83.15
80184;BME280;69682;52.138;5.440;2023-10-09T10:04:26;102079.66;;;18.13;82.72
80184;BME280;69682;52.138;5.440;2023-10-09T10:06:54;102083.22;;;18.13;82.84
80184;BME280;69682;52.138;5.440;2023-10-09T10:09:41;102075.69;;;18.17;82.77
80184;BME280;69682;52.138;5.440;2023-10-09T10:12:08;102073.72;;;18.19;82.53
80184;BME280;69682;52.138;5.440;2023-10-09T10:17:16;102072.44;;;18.23;82.19
80184;BME280;69682;52.138;5.440;2023-10-09T10:22:28;102067.50;;;18.28;82.22
80184;BME280;69682;52.138;5.440;2023-10-09T10:24:55;102072.50;;;18.33;82.17
80184;BME280;69682;52.138;5.440;2023-10-09T10:27:26;102077.75;;;18.34;82.16
80184;BME280;69682;52.138;5.440;2023-10-09T10:32:59;102093.25;;;18.42;81.63
80184;BME280;69682;52.138;5.440;2023-10-09T10:35:36;102096.53;;;18.46;81.55
80184;BME280;69682;52.138;5.440;2023-10-09T10:38:31;102098.94;;;18.49;81.56
80184;BME280;69682;52.138;5.440;2023-10-09T10:41:19;102094.97;;;18.53;81.27
80184;BME280;69682;52.138;5.440;2023-10-09T10:43:48;102105.38;;;18.57;80.81
80184;BME280;69682;52.138;5.440;2023-10-09T10:46:22;102101.53;;;18.60;81.00
80184;BME280;69682;52.138;5.440;2023-10-09T10:49:06;102100.25;;;18.64;80.86
80184;BME280;69682;52.138;5.440;2023-10-09T10:51:56;102088.22;;;18.68;81.02
80184;BME280;69682;52.138;5.440;2023-10-09T10:54:41;102096.03;;;18.71;80.17
80184;BME280;69682;52.138;5.440;2023-10-09T10:57:18;102088.78;;;18.72;79.89
80184;BME280;69682;52.138;5.440;2023-10-09T10:59:58;102084.38;;;18.71;80.19
80184;BME280;69682;52.138;5.440;2023-10-09T11:02:51;102090.09;;;18.77;80.23
80184;BME280;69682;52.138;5.440;2023-10-09T11:05:18;102097.06;;;18.80;79.41
80184;BME280;69682;52.138;5.440;2023-10-09T11:07:57;102087.69;;;18.84;79.98
80184;BME280;69682;52.138;5.440;2023-10-09T11:10:23;102084.56;;;18.89;79.18
80184;BME280;69682;52.138;5.440;2023-10-09T11:12:56;102081.59;;;18.92;79.06
80184;BME280;69682;52.138;5.440;2023-10-09T11:15:39;102084.97;;;18.94;79.00
80184;BME280;69682;52.138;5.440;2023-10-09T11:18:13;102088.41;;;18.96;78.66
80184;BME280;69682;52.138;5.440;2023-10-09T11:20:54;102085.41;;;18.99;78.63
80184;BME280;69682;52.138;5.440;2023-10-09T11:23:31;102096.22;;;18.99;77.77
80184;BME280;69682;52.138;5.440;2023-10-09T11:26:03;102090.69;;;19.00;78.14
80184;BME280;69682;52.138;5.440;2023-10-09T11:29:08;102092.81;;;19.06;78.64
80184;BME280;69682;52.138;5.440;2023-10-09T11:31:58;102084.28;;;19.11;78.51
80184;BME280;69682;52.138;5.440;2023-10-09T11:34:27;102092.94;;;19.15;78.20
80184;BME280;69682;52.138;5.440;2023-10-09T11:39:38;102092.53;;;19.19;77.87
80184;BME280;69682;52.138;5.440;2023-10-09T11:42:23;102084.00;;;19.24;77.01
80184;BME280;69682;52.138;5.440;2023-10-09T11:45:06;102077.72;;;19.23;76.87
80184;BME280;69682;52.138;5.440;2023-10-09T11:47:58;102080.31;;;19.25;77.25
80184;BME280;69682;52.138;5.440;2023-10-09T11:50:51;102080.56;;;19.32;77.20
80184;BME280;69682;52.138;5.440;2023-10-09T11:53:42;102090.53;;;19.31;76.57
80184;BME280;69682;52.138;5.440;2023-10-09T11:56:10;102099.66;;;19.30;76.70
80184;BME280;69682;52.138;5.440;2023-10-09T11:58:41;102089.13;;;19.27;76.53
80184;BME280;69682;52.138;5.440;2023-10-09T12:01:13;102090.25;;;19.24;77.10
80184;BME280;69682;52.138;5.440;2023-10-09T12:03:47;102081.44;;;19.22;76.79
80184;BME280;69682;52.138;5.440;2023-10-09T12:06:18;102076.03;;;19.22;77.08
80184;BME280;69682;52.138;5.440;2023-10-09T12:08:58;102072.31;;;19.23;77.27
80184;BME280;69682;52.138;5.440;2023-10-09T12:11:25;102074.75;;;19.26;77.24
80184;BME280;69682;52.138;5.440;2023-10-09T12:13:56;102060.81;;;19.31;77.01
80184;BME280;69682;52.138;5.440;2023-10-09T12:16:24;102064.78;;;19.37;76.95
80184;BME280;69682;52.138;5.440;2023-10-09T12:18:56;102065.78;;;19.36;76.93
80184;BME280;69682;52.138;5.440;2023-10-09T12:21:23;102056.81;;;19.35;77.08
80184;BME280;69682;52.138;5.440;2023-10-09T12:23:50;102053.25;;;19.35;77.26
80184;BME280;69682;52.138;5.440;2023-10-09T12:26:17;102059.50;;;19.35;76.90
80184;BME280;69682;52.138;5.440;2023-10-09T12:28:44;102063.09;;;19.36;76.90
80184;BME280;69682;52.138;5.440;2023-10-09T12:31:28;102058.81;;;19.33;77.16
80184;BME280;69682;52.138;5.440;2023-10-09T12:34:09;102064.66;;;19.28;77.55
80184;BME280;69682;52.138;5.440;2023-10-09T12:36:36;102060.25;;;19.27;76.91
80184;BME280;69682;52.138;5.440;2023-10-09T12:39:04;102064.09;;;19.25;77.36
80184;BME280;69682;52.138;5.440;2023-10-09T12:41:32;102065.94;;;19.24;77.33
80184;BME280;69682;52.138;5.440;2023-10-09T12:44:00;102071.19;;;19.26;77.79
80184;BME280;69682;52.138;5.440;2023-10-09T12:46:28;102064.50;;;19.30;78.14
80184;BME280;69682;52.138;5.440;2023-10-09T12:48:59;102067.91;;;19.32;77.50
80184;BME280;69682;52.138;5.440;2023-10-09T12:51:27;102064.50;;;19.30;77.14
80184;BME280;69682;52.138;5.440;2023-10-09T12:53:57;102073.59;;;19.29;77.10
80184;BME280;69682;52.138;5.440;2023-10-09T12:56:25;102073.59;;;19.29;77.31
80184;BME280;69682;52.138;5.440;2023-10-09T12:59:05;102072.75;;;19.28;77.42
80184;BME280;69682;52.138;5.440;2023-10-09T13:01:33;102071.19;;;19.26;77.24
80184;BME280;69682;52.138;5.440;2023-10-09T13:04:14;102084.00;;;19.24;77.45
80184;BME280;69682;52.138;5.440;2023-10-09T13:06:45;102074.47;;;19.20;77.03
80184;BME280;69682;52.138;5.440;2023-10-09T13:09:16;102080.16;;;19.17;77.23
80184;BME280;69682;52.138;5.440;2023-10-09T13:12:01;102089.41;;;19.14;77.50
80184;BME280;69682;52.138;5.440;2023-10-09T13:14:28;102086.00;;;19.12;77.46
80184;BME280;69682;52.138;5.440;2023-10-09T13:16:55;102086.00;;;19.12;77.34
80184;BME280;69682;52.138;5.440;2023-10-09T13:19:23;102087.81;;;19.12;77.38
80184;BME280;69682;52.138;5.440;2023-10-09T13:21:52;102090.69;;;19.10;77.64
80184;BME280;69682;52.138;5.440;2023-10-09T13:24:19;102078.03;;;19.11;77.52
80184;BME280;69682;52.138;5.440;2023-10-09T13:26:51;102078.88;;;19.11;77.88
80184;BME280;69682;52.138;5.440;2023-10-09T13:29:18;102098.78;;;19.10;77.75
80184;BME280;69682;52.138;5.440;2023-10-09T13:31:51;102091.69;;;19.09;78.07
80184;BME280;69682;52.138;5.440;2023-10-09T13:34:29;102080.16;;;19.07;77.57
80184;BME280;69682;52.138;5.440;2023-10-09T13:36:56;102078.59;;;19.04;77.72
80184;BME280;69682;52.138;5.440;2023-10-09T13:39:26;102085.00;;;19.03;77.66
80184;BME280;69682;52.138;5.440;2023-10-09T13:41:54;102081.44;;;19.03;77.75
80184;BME280;69682;52.138;5.440;2023-10-09T13:44:31;102076.19;;;19.01;77.41
80184;BME280;69682;52.138;5.440;2023-10-09T13:47:00;102076.31;;;19.00;77.47
80184;BME280;69682;52.138;5.440;2023-10-09T13:49:29;102079.00;;;19.00;77.29
80184;BME280;69682;52.138;5.440;2023-10-09T13:52:00;102087.13;;;19.00;77.53
80184;BME280;69682;52.138;5.440;2023-10-09T13:54:29;102087.28;;;18.98;77.67
80184;BME280;69682;52.138;5.440;2023-10-09T13:57:02;102075.47;;;18.99;77.42
80184;BME280;69682;52.138;5.440;2023-10-09T13:59:35;102076.31;;;19.00;77.57